createdAt,value
2019-04-05T00:00:40.555Z,100217.33
2019-04-05T00:03:10.392Z,100231.67
2019-04-05T00:05:40.900Z,100222.05
2019-04-05T00:08:11.239Z,100218.49
2019-04-05T00:10:41.112Z,100215.88
2019-04-05T00:13:11.004Z,100217.72
2019-04-05T00:15:40.848Z,100220.23
2019-04-05T00:18:10.701Z,100216.56
2019-04-05T00:20:40.517Z,100216.18
2019-04-05T00:23:10.340Z,100210.88
2019-04-05T00:25:40.241Z,100212.15
2019-04-05T00:28:10.131Z,100206.37
2019-04-05T00:30:39.985Z,100207.05
2019-04-05T00:33:09.815Z,100211.28
2019-04-05T00:35:39.749Z,100218.86
2019-04-05T00:38:09.504Z,100212.63
2019-04-05T00:40:39.435Z,100212.70
2019-04-05T00:43:09.232Z,100216.28
2019-04-05T00:45:39.068Z,100224.44
2019-04-05T00:48:11.370Z,100224.63
2019-04-05T00:50:43.227Z,100225.41
2019-04-05T00:53:19.347Z,100220.79
2019-04-05T00:55:49.611Z,100230.78
2019-04-05T00:58:19.567Z,100235.08
2019-04-05T01:00:49.433Z,100241.50
2019-04-05T01:03:19.268Z,100227.95
2019-04-05T01:05:49.179Z,100227.77
2019-04-05T01:08:19.102Z,100233.92
2019-04-05T01:10:49.032Z,100238.15
2019-04-05T01:13:18.945Z,100234.95
2019-04-05T01:15:48.853Z,100237.94
2019-04-05T01:18:18.759Z,100232.63
2019-04-05T01:20:50.094Z,100231.87
2019-04-05T01:23:21.099Z,100236.60
2019-04-05T01:25:54.200Z,100231.09
2019-04-05T01:28:25.283Z,100229.90
2019-04-05T01:30:55.126Z,100226.89
2019-04-05T01:33:25.008Z,100221.88
2019-04-05T01:35:54.975Z,100236.44
2019-04-05T01:38:24.883Z,100233.95
2019-04-05T01:40:57.559Z,100235.58
2019-04-05T01:43:27.466Z,100235.78
2019-04-05T01:45:58.469Z,100234.89
2019-04-05T01:48:28.223Z,100235.69
2019-04-05T01:51:25.217Z,100244.35
2019-04-05T01:56:49.788Z,100229.17
2019-04-05T01:59:19.535Z,100221.28
2019-04-05T02:01:49.550Z,100222.63
2019-04-05T02:04:19.443Z,100216.21
2019-04-05T02:06:49.286Z,100214.94
2019-04-05T02:09:19.210Z,100219.61
2019-04-05T02:11:49.580Z,100228.19
2019-04-05T02:14:19.839Z,100229.03
2019-04-05T02:17:11.256Z,100229.80
2019-04-05T02:19:41.069Z,100248.78
2019-04-05T02:22:10.941Z,100221.55
2019-04-05T02:24:40.773Z,100222.05
2019-04-05T02:27:10.624Z,100232.55
2019-04-05T02:29:40.560Z,100235.97
2019-04-05T02:32:10.478Z,100230.56
2019-04-05T02:34:40.320Z,100233.00
2019-04-05T02:37:10.110Z,100238.64
2019-04-05T02:39:39.936Z,100238.94
2019-04-05T02:42:12.068Z,100227.39
2019-04-05T02:44:44.522Z,100233.16
2019-04-05T02:47:15.932Z,100227.41
2019-04-05T02:49:47.516Z,100225.57
2019-04-05T02:52:19.626Z,100223.56
2019-04-05T02:54:50.558Z,100221.62
2019-04-05T02:57:21.785Z,100218.05
2019-04-05T02:59:52.727Z,100221.62
2019-04-05T03:02:22.546Z,100216.72
2019-04-05T03:04:52.418Z,100216.72
2019-04-05T03:07:22.537Z,100215.95
2019-04-05T03:09:52.607Z,100217.48
2019-04-05T03:12:22.538Z,100225.00
2019-04-05T03:14:52.448Z,100234.03
2019-04-05T03:17:24.049Z,100248.98
2019-04-05T03:19:56.989Z,100264.76
2019-04-05T03:22:29.629Z,100258.66
2019-04-05T03:25:00.288Z,100247.39
2019-04-05T03:27:33.109Z,100253.69
2019-04-05T03:30:03.505Z,100250.22
2019-04-05T03:32:33.417Z,100244.63
2019-04-05T03:35:03.313Z,100245.56
2019-04-05T03:37:33.496Z,100247.14
2019-04-05T03:40:04.889Z,100248.33
2019-04-05T03:42:35.560Z,100246.91
2019-04-05T03:45:07.250Z,100244.93
2019-04-05T03:47:37.339Z,100244.12
2019-04-05T03:50:07.536Z,100233.39
2019-04-05T03:52:45.403Z,100228.87
2019-04-05T03:55:18.643Z,100236.27
2019-04-05T03:57:48.660Z,100223.73
2019-04-05T04:00:18.562Z,100227.88
2019-04-05T04:02:49.852Z,100211.57
2019-04-05T04:05:19.829Z,100209.09
2019-04-05T04:07:49.706Z,100212.17
2019-04-05T04:10:19.720Z,100215.59
2019-04-05T04:12:50.515Z,100214.56
2019-04-05T04:15:20.411Z,100214.95
2019-04-05T04:17:50.927Z,100208.93
2019-04-05T04:20:38.111Z,100207.41
2019-04-05T04:23:09.925Z,100215.61
2019-04-05T04:25:40.610Z,100227.73
2019-04-05T04:28:11.114Z,100230.61
2019-04-05T04:30:41.813Z,100225.20
2019-04-05T04:33:11.899Z,100222.27
2019-04-05T04:35:41.848Z,100232.11
2019-04-05T04:38:11.730Z,100227.37
2019-04-05T04:40:41.906Z,100241.23
2019-04-05T04:43:12.017Z,100232.91
2019-04-05T04:45:43.373Z,100238.73
2019-04-05T04:48:13.664Z,100246.24
2019-04-05T04:50:43.662Z,100258.91
2019-04-05T04:53:16.459Z,100251.66
2019-04-05T04:55:46.216Z,100254.34
2019-04-05T04:58:16.205Z,100262.23
2019-04-05T05:00:46.134Z,100249.50
2019-04-05T05:03:16.031Z,100254.70
2019-04-05T05:05:46.184Z,100259.64
2019-04-05T05:08:16.288Z,100268.56
2019-04-05T05:10:46.779Z,100288.03
2019-04-05T05:13:16.628Z,100304.42
2019-04-05T05:15:46.880Z,100313.16
2019-04-05T05:18:17.127Z,100305.33
2019-04-05T05:20:47.052Z,100297.94
2019-04-05T05:23:17.047Z,100317.81
2019-04-05T05:25:47.165Z,100319.75
2019-04-05T05:28:17.417Z,100330.55
2019-04-05T05:30:47.552Z,100329.66
2019-04-05T05:33:17.844Z,100326.53
2019-04-05T05:35:47.903Z,100327.91
2019-04-05T05:38:17.840Z,100320.91
2019-04-05T05:40:47.625Z,100318.80
2019-04-05T05:43:17.520Z,100326.31
2019-04-05T05:45:47.438Z,100318.69
2019-04-05T05:48:17.681Z,100317.45
2019-04-05T05:50:48.495Z,100314.19
2019-04-05T05:53:24.532Z,100313.72
2019-04-05T05:55:54.352Z,100328.16
2019-04-05T05:58:25.747Z,100324.12
2019-04-05T06:00:55.485Z,100332.09
2019-04-05T06:03:25.204Z,100328.73
2019-04-05T06:06:04.307Z,100329.59
2019-04-05T06:08:29.041Z,100327.28
2019-04-05T06:10:58.403Z,100329.13
2019-04-05T06:13:28.247Z,100329.40
2019-04-05T06:15:58.092Z,100332.09
2019-04-05T06:18:27.836Z,100340.88
2019-04-05T06:20:57.627Z,100337.79
2019-04-05T06:23:33.486Z,100336.72
2019-04-05T06:25:58.959Z,100330.38
2019-04-05T06:28:28.806Z,100335.83
2019-04-05T06:30:58.594Z,100338.03
2019-04-05T06:33:31.740Z,100331.87
2019-04-05T06:35:59.920Z,100341.52
2019-04-05T06:38:29.706Z,100336.75
2019-04-05T06:40:59.456Z,100330.45
2019-04-05T06:43:29.212Z,100341.53
2019-04-05T06:45:59.115Z,100347.64
2019-04-05T06:48:29.661Z,100364.94
2019-04-05T06:50:59.688Z,100369.03
2019-04-05T06:53:29.520Z,100373.84
2019-04-05T06:55:59.939Z,100378.90
2019-04-05T06:58:30.284Z,100382.35
2019-04-05T07:01:00.120Z,100377.94
2019-04-05T07:03:29.961Z,100378.68
2019-04-05T07:05:59.696Z,100375.00
2019-04-05T07:08:29.462Z,100372.98
2019-04-05T07:10:59.292Z,100375.83
2019-04-05T07:13:29.117Z,100378.89
2019-04-05T07:15:58.906Z,100387.86
2019-04-05T07:18:35.451Z,100392.58
2019-04-05T07:21:00.160Z,100389.62
2019-04-05T07:23:29.933Z,100392.42
2019-04-05T07:25:59.784Z,100388.55
2019-04-05T07:28:29.494Z,100389.98
2019-04-05T07:30:59.343Z,100391.27
2019-04-05T07:33:29.168Z,100392.84
2019-04-05T07:35:59.248Z,100401.70
2019-04-05T07:38:30.580Z,100394.85
2019-04-05T07:41:00.323Z,100391.23
2019-04-05T07:43:30.062Z,100397.17
2019-04-05T07:45:59.979Z,100400.95
2019-04-05T07:48:29.827Z,100393.17
2019-04-05T07:50:59.647Z,100388.67
2019-04-05T07:53:29.381Z,100399.03
2019-04-05T07:55:59.112Z,100401.73
2019-04-05T07:58:29.029Z,100395.25
2019-04-05T08:00:59.018Z,100390.45
2019-04-05T08:03:28.897Z,100385.45
2019-04-05T08:05:58.853Z,100377.08
2019-04-05T08:08:40.387Z,100375.42
2019-04-05T08:11:10.324Z,100378.16
2019-04-05T08:13:41.872Z,100383.70
2019-04-05T08:16:11.773Z,100387.91
2019-04-05T08:18:41.571Z,100388.41
2019-04-05T08:21:11.529Z,100393.20
2019-04-05T08:23:41.276Z,100386.45
2019-04-05T08:26:16.766Z,100392.96
2019-04-05T08:28:46.645Z,100391.25
2019-04-05T08:31:16.413Z,100393.13
2019-04-05T08:33:46.136Z,100400.92
2019-04-05T08:36:15.995Z,100415.84
2019-04-05T08:38:45.815Z,100411.28
2019-04-05T08:41:15.648Z,100412.73
2019-04-05T08:43:47.216Z,100410.03
2019-04-05T08:46:17.048Z,100409.03
2019-04-05T08:48:46.865Z,100421.80
2019-04-05T08:51:16.716Z,100415.56
2019-04-05T08:53:46.438Z,100415.08
2019-04-05T08:56:16.150Z,100411.89
2019-04-05T08:58:45.994Z,100416.13
2019-04-05T09:01:15.782Z,100418.19
2019-04-05T09:03:45.518Z,100415.20
2019-04-05T09:06:15.393Z,100420.69
2019-04-05T09:08:45.218Z,100423.04
2019-04-05T09:11:15.035Z,100416.36
2019-04-05T09:13:44.846Z,100416.51
2019-04-05T09:16:14.617Z,100423.00
2019-04-05T09:18:44.450Z,100416.13
2019-04-05T09:21:14.244Z,100421.16
2019-04-05T09:23:44.083Z,100414.98
2019-04-05T09:26:13.864Z,100416.58
2019-04-05T09:28:43.634Z,100405.29
2019-04-05T09:31:13.365Z,100413.63
2019-04-05T09:33:43.099Z,100414.27
2019-04-05T09:36:12.915Z,100418.53
2019-04-05T09:38:42.838Z,100425.20
2019-04-05T09:41:12.592Z,100421.36
2019-04-05T09:43:42.346Z,100411.95
2019-04-05T09:46:12.227Z,100417.41
2019-04-05T09:48:42.033Z,100413.97
2019-04-05T09:51:11.848Z,100413.14
2019-04-05T09:53:51.724Z,100411.70
2019-04-05T09:56:21.558Z,100407.58
2019-04-05T09:58:51.390Z,100407.78
2019-04-05T10:01:21.120Z,100408.91
2019-04-05T10:03:50.942Z,100412.02
2019-04-05T10:06:20.773Z,100414.62
2019-04-05T10:08:50.507Z,100418.27
2019-04-05T10:11:20.334Z,100417.20
2019-04-05T10:13:50.154Z,100423.77
2019-04-05T10:16:19.970Z,100423.44
2019-04-05T10:18:51.496Z,100424.91
2019-04-05T10:21:21.234Z,100434.62
2019-04-05T10:23:51.074Z,100433.02
2019-04-05T10:26:20.961Z,100437.06
2019-04-05T10:28:50.733Z,100437.27
2019-04-05T10:31:20.482Z,100427.83
2019-04-05T10:33:50.322Z,100430.91
2019-04-05T10:36:20.289Z,100425.62
2019-04-05T10:38:50.089Z,100425.38
2019-04-05T10:41:22.894Z,100427.45
2019-04-05T10:43:51.463Z,100427.27
2019-04-05T10:46:21.210Z,100411.47
2019-04-05T10:48:51.047Z,100416.96
2019-04-05T10:51:22.281Z,100426.87
2019-04-05T10:53:52.030Z,100420.77
2019-04-05T10:56:21.933Z,100413.48
2019-04-05T10:58:51.723Z,100414.17
2019-04-05T11:01:21.569Z,100414.64
2019-04-05T11:03:51.314Z,100418.02
2019-04-05T11:06:21.101Z,100413.06
2019-04-05T11:08:50.981Z,100412.64
2019-04-05T11:11:20.716Z,100419.52
2019-04-05T11:13:50.565Z,100411.20
2019-04-05T11:16:20.321Z,100410.44
2019-04-05T11:18:50.100Z,100414.44
2019-04-05T11:21:19.855Z,100413.05
2019-04-05T11:23:49.612Z,100413.05
2019-04-05T11:26:19.433Z,100406.22
2019-04-05T11:28:49.186Z,100413.28
2019-04-05T11:31:19.016Z,100415.30
2019-04-05T11:33:49.047Z,100414.70
2019-04-05T11:36:19.686Z,100412.23
2019-04-05T11:38:50.787Z,100412.98
2019-04-05T11:41:22.342Z,100421.44
2019-04-05T11:43:54.205Z,100426.61
2019-04-05T11:46:24.102Z,100426.48
2019-04-05T11:48:54.072Z,100421.38
2019-04-05T11:51:23.946Z,100422.20
2019-04-05T11:53:53.692Z,100423.72
2019-04-05T11:56:23.426Z,100427.39
2019-04-05T11:58:53.176Z,100433.46
2019-04-05T12:01:24.564Z,100436.02
2019-04-05T12:03:54.363Z,100439.53
2019-04-05T12:06:24.147Z,100432.31
2019-04-05T12:08:54.006Z,100434.28
2019-04-05T12:11:23.824Z,100433.52
2019-04-05T12:13:53.648Z,100433.11
2019-04-05T12:16:23.468Z,100433.22
2019-04-05T12:18:53.208Z,100432.27
2019-04-05T12:21:23.017Z,100431.77
2019-04-05T12:23:52.983Z,100433.81
2019-04-05T12:26:22.774Z,100431.30
2019-04-05T12:28:52.616Z,100432.20
2019-04-05T12:31:23.060Z,100435.18
2019-04-05T12:33:52.893Z,100428.61
2019-04-05T12:36:22.774Z,100425.42
2019-04-05T12:38:54.180Z,100430.84
2019-04-05T12:41:24.197Z,100429.25
2019-04-05T12:43:54.033Z,100425.97
2019-04-05T12:46:23.930Z,100424.63
2019-04-05T12:48:53.697Z,100420.48
2019-04-05T12:51:23.507Z,100412.52
2019-04-05T12:53:56.474Z,100419.42
2019-04-05T12:56:26.613Z,100409.17
2019-04-05T12:58:56.718Z,100414.03
2019-04-05T13:01:26.708Z,100413.60
2019-04-05T13:03:58.694Z,100419.94
2019-04-05T13:06:28.135Z,100420.88
2019-04-05T13:08:58.042Z,100424.69
2019-04-05T13:11:27.800Z,100422.68
2019-04-05T13:13:57.616Z,100424.18
2019-04-05T13:16:27.322Z,100415.73
2019-04-05T13:19:00.564Z,100414.28
2019-04-05T13:21:32.014Z,100412.17
2019-04-05T13:24:00.220Z,100414.27
2019-04-05T13:26:30.019Z,100414.75
2019-04-05T13:28:59.762Z,100414.55
2019-04-05T13:31:29.634Z,100418.38
2019-04-05T13:33:59.401Z,100419.98
2019-04-05T13:36:29.123Z,100418.67
2019-04-05T13:39:00.442Z,100414.50
2019-04-05T13:41:32.278Z,100420.95
2019-04-05T13:44:02.285Z,100415.28
2019-04-05T13:46:32.031Z,100412.94
2019-04-05T13:49:01.794Z,100418.33
2019-04-05T13:51:32.079Z,100412.80
2019-04-05T13:54:01.973Z,100415.22
2019-04-05T13:56:31.741Z,100419.23
2019-04-05T13:59:01.483Z,100419.92
2019-04-05T14:01:31.356Z,100424.25
2019-04-05T14:04:01.214Z,100419.66
2019-04-05T14:06:31.057Z,100421.29
2019-04-05T14:09:00.886Z,100423.72
2019-04-05T14:11:30.704Z,100420.86
2019-04-05T14:14:00.521Z,100421.94
2019-04-05T14:16:30.300Z,100414.52
2019-04-05T14:19:00.118Z,100416.10
2019-04-05T14:21:39.822Z,100417.70
2019-04-05T14:24:04.084Z,100418.69
2019-04-05T14:26:33.002Z,100423.66
2019-04-05T14:29:03.714Z,100428.56
2019-04-05T14:31:34.014Z,100427.05
2019-04-05T14:34:03.922Z,100428.97
2019-04-05T14:36:33.683Z,100427.75
2019-04-05T14:39:03.578Z,100424.19
2019-04-05T14:41:33.320Z,100426.43
2019-04-05T14:44:03.074Z,100430.48
2019-04-05T14:46:32.929Z,100429.53
2019-04-05T14:49:02.839Z,100421.27
2019-04-05T14:51:32.674Z,100432.12
2019-04-05T14:54:02.604Z,100437.70
2019-04-05T14:56:32.386Z,100435.03
2019-04-05T14:59:02.190Z,100432.16
2019-04-05T15:01:31.929Z,100438.36
2019-04-05T15:04:01.752Z,100433.50
2019-04-05T15:06:31.604Z,100435.80
2019-04-05T15:09:02.143Z,100428.04
2019-04-05T15:11:32.026Z,100431.19
2019-04-05T15:14:01.764Z,100419.25
2019-04-05T15:16:31.587Z,100418.91
2019-04-05T15:19:01.345Z,100422.17
2019-04-05T15:21:31.106Z,100422.27
2019-04-05T15:24:01.064Z,100417.40
2019-04-05T15:26:30.871Z,100416.91
2019-04-05T15:29:00.627Z,100418.12
2019-04-05T15:31:30.405Z,100423.16
2019-04-05T15:34:00.184Z,100427.47
2019-04-05T15:36:34.854Z,100442.91
2019-04-05T15:39:07.874Z,100431.12
2019-04-05T15:41:37.914Z,100433.63
2019-04-05T15:44:07.677Z,100434.44
2019-04-05T15:46:37.572Z,100432.62
2019-04-05T15:49:07.467Z,100439.75
2019-04-05T15:51:37.261Z,100437.97
2019-04-05T15:54:07.092Z,100436.47
2019-04-05T15:56:36.949Z,100437.30
2019-04-05T15:59:06.799Z,100429.03
2019-04-05T16:01:36.685Z,100431.00
2019-04-05T16:04:06.576Z,100426.62
2019-04-05T16:06:38.939Z,100435.88
2019-04-05T16:09:09.861Z,100428.75
2019-04-05T16:11:39.800Z,100434.21
2019-04-05T16:14:09.796Z,100431.28
2019-04-05T16:16:39.665Z,100433.89
2019-04-05T16:19:09.593Z,100438.61
2019-04-05T16:21:39.311Z,100444.77
2019-04-05T16:24:09.183Z,100445.63
2019-04-05T16:26:38.994Z,100450.47
2019-04-05T16:29:08.753Z,100448.37
2019-04-05T16:31:38.654Z,100454.19
2019-04-05T16:34:08.389Z,100451.38
2019-04-05T16:36:38.306Z,100467.05
2019-04-05T16:39:10.116Z,100465.19
2019-04-05T16:41:39.831Z,100470.82
2019-04-05T16:44:09.573Z,100472.66
2019-04-05T16:46:39.277Z,100474.44
2019-04-05T16:49:09.121Z,100474.16
2019-04-05T16:51:39.004Z,100467.65
2019-04-05T16:54:08.839Z,100469.92
2019-04-05T16:56:38.564Z,100468.64
2019-04-05T16:59:08.306Z,100479.33
2019-04-05T17:01:38.209Z,100476.24
2019-04-05T17:04:08.050Z,100481.48
2019-04-05T17:06:37.837Z,100487.25
2019-04-05T17:09:09.193Z,100490.61
2019-04-05T17:11:39.017Z,100493.97
2019-04-05T17:14:08.747Z,100493.91
2019-04-05T17:16:38.579Z,100494.27
2019-04-05T17:19:08.374Z,100490.45
2019-04-05T17:21:38.107Z,100488.35
2019-04-05T17:24:08.008Z,100489.81
2019-04-05T17:26:37.766Z,100486.79
2019-04-05T17:29:07.508Z,100491.52
2019-04-05T17:31:37.365Z,100498.67
2019-04-05T17:34:07.390Z,100502.55
2019-04-05T17:36:37.391Z,100506.34
2019-04-05T17:39:08.474Z,100504.53
2019-04-05T17:41:38.331Z,100510.36
2019-04-05T17:44:08.129Z,100506.28
2019-04-05T17:46:37.970Z,100502.09
2019-04-05T17:49:07.770Z,100502.48
2019-04-05T17:51:37.684Z,100511.36
2019-04-05T17:54:07.672Z,100515.70
2019-04-05T17:56:37.843Z,100518.04
2019-04-05T17:59:07.737Z,100515.31
2019-04-05T18:01:38.893Z,100515.69
2019-04-05T18:04:08.809Z,100524.34
2019-04-05T18:06:38.589Z,100526.34
2019-04-05T18:09:08.485Z,100529.19
2019-04-05T18:11:38.327Z,100520.50
2019-04-05T18:14:08.129Z,100522.62
2019-04-05T18:16:37.891Z,100532.02
2019-04-05T18:19:07.751Z,100530.05
2019-04-05T18:21:40.091Z,100532.88
2019-04-05T18:24:10.026Z,100534.85
2019-04-05T18:26:39.809Z,100534.36
2019-04-05T18:29:09.585Z,100537.45
2019-04-05T18:31:39.407Z,100541.23
2019-04-05T18:34:09.189Z,100536.55
2019-04-05T18:36:39.025Z,100550.51
2019-04-05T18:39:09.144Z,100552.77
2019-04-05T18:41:38.953Z,100560.80
2019-04-05T18:44:08.772Z,100551.72
2019-04-05T18:46:38.540Z,100562.61
2019-04-05T18:49:08.585Z,100567.80
2019-04-05T18:51:38.585Z,100578.24
2019-04-05T18:54:08.434Z,100580.11
2019-04-05T18:56:38.325Z,100586.77
2019-04-05T18:59:08.296Z,100593.73
2019-04-05T19:01:38.091Z,100588.70
2019-04-05T19:04:09.404Z,100595.40
2019-04-05T19:06:39.427Z,100593.91
2019-04-05T19:09:12.160Z,100593.69
2019-04-05T19:11:42.317Z,100596.26
2019-04-05T19:14:12.366Z,100588.08
2019-04-05T19:16:42.115Z,100594.39
2019-04-05T19:19:12.130Z,100590.88
2019-04-05T19:21:41.895Z,100579.97
2019-04-05T19:24:11.834Z,100578.61
2019-04-05T19:26:41.885Z,100582.87
2019-04-05T19:29:11.939Z,100584.70
2019-04-05T19:49:25.655Z,100609.08
2019-04-05T19:51:55.534Z,100617.92
2019-04-05T19:54:28.859Z,100615.30
2019-04-05T19:56:58.635Z,100618.49
2019-04-05T19:59:28.458Z,100616.34
2019-04-05T20:01:58.165Z,100617.27
2019-04-05T20:04:28.193Z,100618.95
2019-04-05T20:06:58.886Z,100622.11
2019-04-05T20:09:28.835Z,100626.64
2019-04-05T20:11:58.622Z,100631.40
2019-04-05T20:14:28.320Z,100635.03
2019-04-05T20:16:58.278Z,100639.92
2019-04-05T20:19:28.129Z,100635.80
2019-04-05T20:21:57.999Z,100636.53
2019-04-05T20:24:27.764Z,100637.38
2019-04-05T20:26:57.515Z,100633.82
2019-04-05T20:29:27.279Z,100639.56
2019-04-05T20:31:57.123Z,100645.72
2019-04-05T20:34:26.972Z,100643.33
2019-04-05T20:36:56.917Z,100646.87
2019-04-05T20:39:26.765Z,100645.45
2019-04-05T20:42:02.905Z,100652.58
2019-04-05T20:44:32.782Z,100650.56
2019-04-05T20:47:02.973Z,100651.84
2019-04-05T20:49:33.004Z,100657.20
2019-04-05T20:52:03.113Z,100659.54
2019-04-05T20:54:33.039Z,100661.33
2019-04-05T20:57:02.803Z,100654.94
2019-04-05T20:59:32.615Z,100659.91
2019-04-05T21:02:02.443Z,100657.75
2019-04-05T21:04:32.530Z,100663.11
2019-04-05T21:07:02.293Z,100660.18
2019-04-05T21:09:32.131Z,100658.89
2019-04-05T21:12:02.144Z,100669.73
2019-04-05T21:14:31.991Z,100665.67
2019-04-05T21:17:01.816Z,100673.59
2019-04-05T21:19:31.770Z,100675.32
2019-04-05T21:22:06.817Z,100674.72
2019-04-05T21:24:39.151Z,100677.89
2019-04-05T21:27:09.082Z,100679.94
2019-04-05T21:29:38.828Z,100688.50
2019-04-05T21:32:08.683Z,100686.43
2019-04-05T21:34:38.455Z,100690.38
2019-04-05T21:37:08.367Z,100691.56
2019-04-05T21:39:38.235Z,100691.52
2019-04-05T21:42:08.563Z,100699.98
2019-04-05T21:44:39.283Z,100703.50
2019-04-05T21:47:09.128Z,100702.14
2019-04-05T21:49:38.920Z,100701.50
2019-04-05T21:52:08.801Z,100708.99
2019-04-05T21:54:47.123Z,100713.01
2019-04-05T21:57:10.177Z,100710.80
2019-04-05T21:59:39.977Z,100716.42
2019-04-05T22:02:09.906Z,100717.31
2019-04-05T22:04:39.706Z,100714.73
2019-04-05T22:07:09.665Z,100718.37
2019-04-05T22:09:39.446Z,100719.28
2019-04-05T22:12:14.562Z,100724.70
2019-04-05T22:14:44.036Z,100724.73
2019-04-05T22:17:13.839Z,100730.15
2019-04-05T22:19:43.627Z,100727.18
2019-04-05T22:22:13.886Z,100725.53
2019-04-05T22:24:44.125Z,100727.88
2019-04-05T22:27:13.961Z,100732.22
2019-04-05T22:29:43.774Z,100726.97
2019-04-05T22:32:13.607Z,100729.38
2019-04-05T22:34:43.463Z,100728.08
2019-04-05T22:37:13.464Z,100732.19
2019-04-05T22:39:43.256Z,100727.33
2019-04-05T22:42:13.070Z,100731.81
2019-04-05T22:44:42.950Z,100734.21
2019-04-05T22:47:12.867Z,100738.82
2019-04-05T22:49:42.673Z,100742.89
2019-04-05T22:52:12.486Z,100739.45
2019-04-05T22:54:42.315Z,100745.54
2019-04-05T22:57:12.215Z,100747.74
2019-04-05T22:59:42.061Z,100748.34
2019-04-05T23:02:11.861Z,100741.09
2019-04-05T23:04:41.723Z,100743.01
2019-04-05T23:07:11.661Z,100742.78
2019-04-05T23:09:41.545Z,100743.52
2019-04-05T23:12:11.356Z,100745.16
2019-04-05T23:14:41.157Z,100742.00
2019-04-05T23:17:10.985Z,100747.94
2019-04-05T23:19:40.790Z,100742.23
2019-04-05T23:22:10.638Z,100736.45
2019-04-05T23:24:42.046Z,100742.98
2019-04-05T23:27:12.102Z,100744.27
2019-04-05T23:29:42.245Z,100739.83
2019-04-05T23:32:12.446Z,100743.90
2019-04-05T23:34:42.668Z,100743.52
2019-04-05T23:37:12.512Z,100742.78
2019-04-05T23:39:42.394Z,100747.32
2019-04-05T23:42:12.242Z,100742.86
2019-04-05T23:44:42.105Z,100743.81
2019-04-05T23:47:11.964Z,100752.28
2019-04-05T23:49:41.764Z,100749.95
2019-04-05T23:52:14.441Z,100754.27
2019-04-05T23:54:44.210Z,100750.45
2019-04-05T23:57:16.640Z,100742.48
2019-04-05T23:59:46.363Z,100746.30
